Lansing, Kansas
Current Conditions -  °F | °C
As of 7:53 PM on Monday 22 Dec 2014 (Local Time) from KMCI Reporting Station
Overcast Overcast  
Wind Chill: 37°   Ceiling: 6000
Heat Index: 43°   Visibility: 10mi
Dew Point: 41°   Wind: 10mph
Humidity: 93%   Direction: 250°WSW
Pressure: 29.5"   Gusts: NA
Location:  39.24°N, 94.9°W
Report Text: KMCI 230153Z 25009KT 10SM FEW026 SCT038 OVC060 06/05 A2950 RMK AO2 SLP992 T00610050
Loading
Personal Weather Stations






























Interactive Weather Map New forecast layout! Learn more

10-Day Weather Forecast

Advertisements
Track Severe Weather on mobile